Meteo Giornale » Osservazioni meteo Repubblica Ceca » Praha-Ruzyne

ore: 01:47 - Osservazioni Meteo Praha-Ruzyne
Lat. 50° 6' N Lon. 14° 15' E Alt. 365 metri s.l.m.

molto_nuvoloso Europe/Prague

18 °C

Molto Nuvoloso

Temp. 24 Ore

13 °C

26 °C

Nord

3.7 Km/h

Dew point 16 °C

Umidità 88 %

Visibilità  10 Km

Il sole sorge alle ore 04:54

Il sole tramonta alle ore 21:18

Data e Ora Cielo e Fenomeni T °C DP °C Um. % Pres. hPa Vis. km Vento km/h
Oggi h: 01:47 molto_nuvoloso Molto Nuvoloso 18 16 88 996 10 N 3.7
Oggi h: 01:30 poco_nuvoloso Poco Nuvoloso 18 16 88 996 10 N 3.7
Oggi h: 01:00 sereno Sereno 18 16 88 996 10 N 7.4
Oggi h: 00:30 sereno Sereno 18 16 88 996 10 NO 9.3
Oggi h: 00:00 sereno Sereno 18 16 88 997 10 NO 11.1
Ieri h: 23:30 sereno Sereno 19 16 82 997 10 NO 11.1
Ieri h: 23:00 sereno Sereno 20 15 72 997 10 N 5.5
Ieri h: 22:30 sereno Sereno 20 15 72 998 10 NE 7.4
Ieri h: 22:00 sereno Sereno 20 15 72 998 10 N 5.5
Ieri h: 21:30 sereno Sereno 21 15 68 998 10 NE 11.1
Ieri h: 21:00 sereno Sereno 23 17 68 998 10 NE 7.4
Ieri h: 20:30 sereno Sereno 23 17 68 998 10 E/NE 9.3
Ieri h: 20:00 sereno Sereno 23 17 68 998 10 N 9.3
Ieri h: 19:30 sereno Sereno 24 18 69 998 10 N 14.8
Ieri h: 18:30 poco_nuvoloso Poco Nuvoloso 26 16 54 998 10 N 5.5
Ieri h: 18:00 poco_nuvoloso Poco Nuvoloso 26 15 50 998 10 N 7.4
Ieri h: 17:30 poco_nuvoloso Poco Nuvoloso 26 15 50 999 10 E/NE 7.4
Ieri h: 17:00 poco_nuvoloso Poco Nuvoloso 25 15 53 999 10 E/SE 7.4
Ieri h: 16:30 nuvoloso_temporali Temporale nelle Vicinanze 25 17 61 999 10 E/NE 14.8
Ieri h: 16:11 nuvoloso_temporali Temporale nelle Vicinanze 26 17 57 1000 10 NE 13
Ieri h: 16:00 coperto_temporali Temporale 25 16 57 1000 10 E/NE 13
Ieri h: 15:30 nuvoloso_temporali Temporale nelle Vicinanze 26 18 61 1000 10 E 20.3
Ieri h: 15:00 nuvoloso_temporali Temporale nelle Vicinanze 26 19 65 1000 10 N/NO 11.1
Ieri h: 14:49 poco_nuvoloso Poco Nuvoloso 26 19 65 1000 10 NO 13
Ieri h: 14:30 poco_nuvoloso Poco Nuvoloso 24 19 73 1000 10 NO 13
Ieri h: 14:27 poco_nuvoloso Poco Nuvoloso 24 20 78 1000 10 NO 13
Ieri h: 14:17 nuvoloso_piovaschi Rovescio di Pioggia 23 19 78 1000 10 NO 14.8
Ieri h: 14:11 nuvoloso_piovaschi Debole Rovescio di Pioggia 24 18 69 1001 10 NO 11.1
Ieri h: 14:00 poco_nuvoloso Poco Nuvoloso 25 18 65 1001 10 N/NO 11.1
Ieri h: 13:30 poco_nuvoloso Poco Nuvoloso 25 18 65 1001 10 N 3.7
Ieri h: 13:00 poco_nuvoloso Poco Nuvoloso 24 18 69 1001 10 N/NO 9.3
Ieri h: 12:30 sereno Sereno 24 18 69 1001 10 N/NE 7.4
Ieri h: 12:00 sereno Sereno 22 18 78 1001 10 N 9.3
Ieri h: 11:30 poco_nuvoloso Poco Nuvoloso 21 17 77 1002 9 N 9.3
Ieri h: 11:00 nuvoloso Nuvoloso 20 17 82 1002 9 N/NE 9.3
Ieri h: 10:33 nuvoloso Nuvoloso 19 17 88 1003 9 N 5.5
Ieri h: 10:30 molto_nuvoloso Molto Nuvoloso 19 17 88 1003 8 N 7.4
Ieri h: 10:20 molto_nuvoloso Molto Nuvoloso 18 17 93 1003 8 N 5.5
Ieri h: 10:00 coperto Coperto 17 17 100 1003 6 N 5.5
Ieri h: 09:48 coperto Coperto 17 16 93 1003 6 N 5.5
Ieri h: 09:44 foschia Foschia 17 16 93 1003 4 N 5.5
Ieri h: 09:30 foschia Foschia 17 16 93 1003 4 E/NE 7.4
Ieri h: 09:25 foschia Foschia 17 16 93 1003 4 E/NE 7.4
Ieri h: 09:19 foschia Foschia 17 16 93 1003 3 E/NE 7.4
Ieri h: 09:00 foschia Foschia 16 16 100 1003 2 N 5.5
Ieri h: 08:54 foschia Foschia 16 16 100 1003 1 E/NE 7.4
Ieri h: 08:46 nebbia Nebbia 16 16 100 1003 0.8 N 5.5
Ieri h: 08:30 coperto_pioggia Pioviggine Leggera Nebbia 16 16 100 1003 0.35 N/NE 9.3
Ieri h: 07:30 nebbia Nebbia 16 15 93 1003 0.35 NE 9.3
Ieri h: 07:00 nebbia Nebbia 16 15 93 1004 0.3 N 5.5
Ieri h: 06:30 nebbia Nebbia 16 15 93 1004 0.25 N 3.7
Ieri h: 06:00 nebbia Nebbia 15 15 100 1004 0.2 N 5.5
Ieri h: 05:44 nebbia Nebbia 15 14 93 1004 0.2 N 3.7
Ieri h: 05:32 nebbia Nebbia 15 14 93 1004 0.25 N 3.7
Ieri h: 05:30 nebbia Nebbia 15 14 93 1004 0.25 N 3.7
Ieri h: 05:10 nebbia Nebbia 15 14 93 1004 0.3 N 3.7
Ieri h: 05:00 nebbia Nebbia 14 14 100 1004 0.6 N 3.7
Ieri h: 04:52 nebbia NebbiaParziale Foschia 14 13 93 1004 1 N 3.7
Ieri h: 04:45 foschia Foschia 14 13 93 1005 2 N 1.8
Ieri h: 04:30 foschia Foschia 14 13 93 1005 3 N 1.8
Ieri h: 04:12 nebbia Banco di Nebbia Foschia 13 12 93 1005 1 N 0
Ieri h: 04:00 foschia Foschia 13 13 100 1005 1 N 1.8
Ieri h: 03:43 nebbia Banco di Nebbia Foschia 14 13 93 1005 0.4 N 0
Ieri h: 03:30 nebbia Nebbia a Strati Foschia 13 13 100 1005 3 N 3.7
Ieri h: 03:00 nebbia Nebbia a Strati Foschia 13 13 100 1005 5 N 3.7